sensor_id;sensor_type;location;lat;lon;timestamp;pressure;altitude;pressure_sealevel;temperature;humidity
73003;BME280;61184;54.356;-8.550;2022-10-26T00:02:09;98773.61;;;22.00;37.14
73003;BME280;61184;54.356;-8.550;2022-10-26T00:04:35;98768.85;;;22.14;36.95
73003;BME280;61184;54.356;-8.550;2022-10-26T00:07:00;98765.71;;;22.33;37.00
73003;BME280;61184;54.356;-8.550;2022-10-26T00:09:26;98764.81;;;22.03;37.06
73003;BME280;61184;54.356;-8.550;2022-10-26T00:11:52;98774.32;;;21.94;37.21
73003;BME280;61184;54.356;-8.550;2022-10-26T00:14:17;98779.56;;;22.15;36.90
73003;BME280;61184;54.356;-8.550;2022-10-26T00:16:42;98774.50;;;21.92;37.21
73003;BME280;61184;54.356;-8.550;2022-10-26T00:19:07;98768.90;;;21.95;37.19
73003;BME280;61184;54.356;-8.550;2022-10-26T00:21:33;98763.47;;;21.69;37.18
73003;BME280;61184;54.356;-8.550;2022-10-26T00:23:58;98758.03;;;21.98;37.09
73003;BME280;61184;54.356;-8.550;2022-10-26T00:26:24;98757.37;;;22.06;36.98
73003;BME280;61184;54.356;-8.550;2022-10-26T00:28:52;98763.76;;;21.77;37.03
73003;BME280;61184;54.356;-8.550;2022-10-26T00:31:15;98769.27;;;22.11;36.88
73003;BME280;61184;54.356;-8.550;2022-10-26T00:33:40;98766.08;;;22.14;36.84
73003;BME280;61184;54.356;-8.550;2022-10-26T00:36:07;98757.80;;;22.25;36.99
73003;BME280;61184;54.356;-8.550;2022-10-26T00:38:31;98753.57;;;22.01;37.01
73003;BME280;61184;54.356;-8.550;2022-10-26T00:40:56;98750.65;;;21.96;37.04
73003;BME280;61184;54.356;-8.550;2022-10-26T00:43:33;98748.87;;;21.72;37.03
73003;BME280;61184;54.356;-8.550;2022-10-26T00:45:49;98752.43;;;21.98;36.98
73003;BME280;61184;54.356;-8.550;2022-10-26T00:48:18;98753.88;;;22.32;36.87
73003;BME280;61184;54.356;-8.550;2022-10-26T00:50:41;98751.69;;;22.12;36.79
73003;BME280;61184;54.356;-8.550;2022-10-26T00:53:05;98743.47;;;21.78;36.92
73003;BME280;61184;54.356;-8.550;2022-10-26T00:55:32;98747.94;;;21.90;36.77
73003;BME280;61184;54.356;-8.550;2022-10-26T00:57:54;98734.82;;;21.93;37.03
73003;BME280;61184;54.356;-8.550;2022-10-26T01:00:21;98736.18;;;22.22;36.91
73003;BME280;61184;54.356;-8.550;2022-10-26T01:02:47;98727.87;;;22.00;36.88
73003;BME280;61184;54.356;-8.550;2022-10-26T01:05:11;98724.23;;;22.01;37.24
73003;BME280;61184;54.356;-8.550;2022-10-26T01:07:36;98724.47;;;21.98;36.93
73003;BME280;61184;54.356;-8.550;2022-10-26T01:10:02;98716.30;;;21.74;37.26
73003;BME280;61184;54.356;-8.550;2022-10-26T01:12:27;98724.65;;;22.05;36.82
73003;BME280;61184;54.356;-8.550;2022-10-26T01:14:53;98721.91;;;22.11;36.70
73003;BME280;61184;54.356;-8.550;2022-10-26T01:17:32;98715.21;;;21.78;36.81
73003;BME280;61184;54.356;-8.550;2022-10-26T01:19:59;98716.81;;;22.03;36.81
73003;BME280;61184;54.356;-8.550;2022-10-26T01:22:13;98710.18;;;21.84;37.04
73003;BME280;61184;54.356;-8.550;2022-10-26T01:24:52;98710.43;;;22.15;36.92
73003;BME280;61184;54.356;-8.550;2022-10-26T01:27:16;98710.21;;;21.89;36.93
73003;BME280;61184;54.356;-8.550;2022-10-26T01:31:55;98696.57;;;21.93;36.89
73003;BME280;61184;54.356;-8.550;2022-10-26T01:34:21;98699.97;;;21.96;36.84
73003;BME280;61184;54.356;-8.550;2022-10-26T01:36:44;98704.50;;;22.16;36.89
73003;BME280;61184;54.356;-8.550;2022-10-26T01:39:12;98707.66;;;21.87;36.95
73003;BME280;61184;54.356;-8.550;2022-10-26T01:41:35;98709.78;;;21.97;36.77
73003;BME280;61184;54.356;-8.550;2022-10-26T01:44:00;98713.39;;;22.10;36.97
73003;BME280;61184;54.356;-8.550;2022-10-26T01:46:25;98716.26;;;21.85;36.96
73003;BME280;61184;54.356;-8.550;2022-10-26T01:48:51;98711.88;;;22.12;36.91
73003;BME280;61184;54.356;-8.550;2022-10-26T01:51:14;98704.79;;;21.68;37.17
73003;BME280;61184;54.356;-8.550;2022-10-26T01:53:43;98697.67;;;21.90;36.87
73003;BME280;61184;54.356;-8.550;2022-10-26T01:56:09;98699.01;;;21.84;36.97
73003;BME280;61184;54.356;-8.550;2022-10-26T01:58:45;98698.93;;;22.08;36.93
73003;BME280;61184;54.356;-8.550;2022-10-26T02:01:00;98700.08;;;22.09;36.89
73003;BME280;61184;54.356;-8.550;2022-10-26T02:03:27;98691.29;;;22.08;36.92
73003;BME280;61184;54.356;-8.550;2022-10-26T02:06:01;98690.13;;;22.05;36.96
73003;BME280;61184;54.356;-8.550;2022-10-26T02:08:26;98686.22;;;21.83;36.94
73003;BME280;61184;54.356;-8.550;2022-10-26T02:10:45;98682.02;;;22.09;36.91
73003;BME280;61184;54.356;-8.550;2022-10-26T02:13:09;98682.26;;;22.13;36.81
73003;BME280;61184;54.356;-8.550;2022-10-26T02:15:34;98682.65;;;22.05;36.91
73003;BME280;61184;54.356;-8.550;2022-10-26T02:17:57;98679.43;;;21.77;36.98
73003;BME280;61184;54.356;-8.550;2022-10-26T02:20:22;98676.08;;;22.10;36.84
73003;BME280;61184;54.356;-8.550;2022-10-26T02:22:47;98673.98;;;21.50;37.01
73003;BME280;61184;54.356;-8.550;2022-10-26T02:25:13;98667.67;;;22.15;36.75
73003;BME280;61184;54.356;-8.550;2022-10-26T02:27:41;98670.01;;;21.82;36.89
73003;BME280;61184;54.356;-8.550;2022-10-26T02:30:02;98670.08;;;21.53;36.93
73003;BME280;61184;54.356;-8.550;2022-10-26T02:32:29;98665.58;;;22.05;36.89
73003;BME280;61184;54.356;-8.550;2022-10-26T02:34:53;98657.21;;;22.03;36.89
73003;BME280;61184;54.356;-8.550;2022-10-26T02:37:19;98650.23;;;22.06;36.86
73003;BME280;61184;54.356;-8.550;2022-10-26T02:39:42;98644.70;;;21.72;36.97
73003;BME280;61184;54.356;-8.550;2022-10-26T02:42:08;98624.94;;;21.99;36.95
73003;BME280;61184;54.356;-8.550;2022-10-26T02:44:40;98622.20;;;22.03;36.91
73003;BME280;61184;54.356;-8.550;2022-10-26T02:47:00;98621.17;;;21.71;37.00
73003;BME280;61184;54.356;-8.550;2022-10-26T02:49:24;98621.81;;;21.74;36.95
73003;BME280;61184;54.356;-8.550;2022-10-26T02:51:52;98627.90;;;21.75;36.91
73003;BME280;61184;54.356;-8.550;2022-10-26T02:54:18;98616.68;;;21.70;36.98
73003;BME280;61184;54.356;-8.550;2022-10-26T02:56:44;98616.37;;;21.79;36.88
73003;BME280;61184;54.356;-8.550;2022-10-26T02:59:08;98631.12;;;21.79;36.86
73003;BME280;61184;54.356;-8.550;2022-10-26T03:01:32;98627.59;;;22.13;36.69
73003;BME280;61184;54.356;-8.550;2022-10-26T03:03:56;98624.78;;;22.01;36.84
73003;BME280;61184;54.356;-8.550;2022-10-26T03:06:23;98615.18;;;21.94;36.93
73003;BME280;61184;54.356;-8.550;2022-10-26T03:08:47;98613.19;;;21.99;36.87
73003;BME280;61184;54.356;-8.550;2022-10-26T03:11:12;98589.95;;;21.74;36.87
73003;BME280;61184;54.356;-8.550;2022-10-26T03:13:38;98527.43;;;21.79;36.76
73003;BME280;61184;54.356;-8.550;2022-10-26T03:16:03;98569.33;;;21.65;36.98
73003;BME280;61184;54.356;-8.550;2022-10-26T03:18:29;98545.13;;;21.92;36.94
73003;BME280;61184;54.356;-8.550;2022-10-26T03:20:54;98528.37;;;21.91;36.93
73003;BME280;61184;54.356;-8.550;2022-10-26T03:23:20;98533.55;;;21.67;36.94
73003;BME280;61184;54.356;-8.550;2022-10-26T03:25:45;98533.07;;;21.71;36.88
73003;BME280;61184;54.356;-8.550;2022-10-26T03:28:11;98529.48;;;21.96;36.86
73003;BME280;61184;54.356;-8.550;2022-10-26T03:30:36;98521.02;;;21.95;36.87
73003;BME280;61184;54.356;-8.550;2022-10-26T03:33:02;98513.93;;;21.99;36.79
73003;BME280;61184;54.356;-8.550;2022-10-26T03:35:27;98510.08;;;21.73;36.82
73003;BME280;61184;54.356;-8.550;2022-10-26T03:37:53;98514.79;;;21.96;36.81
73003;BME280;61184;54.356;-8.550;2022-10-26T03:40:18;98516.20;;;21.65;36.93
73003;BME280;61184;54.356;-8.550;2022-10-26T03:42:43;98507.92;;;21.74;36.77
73003;BME280;61184;54.356;-8.550;2022-10-26T03:45:09;98506.60;;;21.90;36.88
73003;BME280;61184;54.356;-8.550;2022-10-26T03:47:34;98514.85;;;21.70;36.83
73003;BME280;61184;54.356;-8.550;2022-10-26T03:49:59;98517.64;;;21.70;36.83
73003;BME280;61184;54.356;-8.550;2022-10-26T03:52:25;98511.06;;;21.96;36.79
73003;BME280;61184;54.356;-8.550;2022-10-26T03:54:51;98508.39;;;21.92;36.84
73003;BME280;61184;54.356;-8.550;2022-10-26T03:57:16;98505.91;;;21.66;36.86
73003;BME280;61184;54.356;-8.550;2022-10-26T03:59:41;98511.33;;;21.64;36.88
73003;BME280;61184;54.356;-8.550;2022-10-26T04:02:07;98498.76;;;21.62;36.91
73003;BME280;61184;54.356;-8.550;2022-10-26T04:04:32;98479.95;;;21.47;37.08
73003;BME280;61184;54.356;-8.550;2022-10-26T04:06:57;98469.43;;;21.67;36.80
73003;BME280;61184;54.356;-8.550;2022-10-26T04:09:23;98468.77;;;21.21;37.09
73003;BME280;61184;54.356;-8.550;2022-10-26T04:11:48;98465.28;;;21.83;36.90
73003;BME280;61184;54.356;-8.550;2022-10-26T04:14:14;98450.18;;;21.52;37.01
73003;BME280;61184;54.356;-8.550;2022-10-26T04:16:39;98446.95;;;21.92;36.74
73003;BME280;61184;54.356;-8.550;2022-10-26T04:19:04;98462.83;;;21.91;36.78
73003;BME280;61184;54.356;-8.550;2022-10-26T04:21:30;98462.32;;;21.59;36.88
73003;BME280;61184;54.356;-8.550;2022-10-26T04:23:55;98467.45;;;21.87;36.81
73003;BME280;61184;54.356;-8.550;2022-10-26T04:26:22;98473.19;;;21.88;36.81
73003;BME280;61184;54.356;-8.550;2022-10-26T04:28:46;98477.14;;;21.71;37.02
73003;BME280;61184;54.356;-8.550;2022-10-26T04:31:11;98477.76;;;21.90;36.76
73003;BME280;61184;54.356;-8.550;2022-10-26T04:33:37;98471.47;;;21.79;36.92
73003;BME280;61184;54.356;-8.550;2022-10-26T04:36:03;98476.98;;;21.37;37.15
73003;BME280;61184;54.356;-8.550;2022-10-26T04:38:28;98468.85;;;21.55;36.87
73003;BME280;61184;54.356;-8.550;2022-10-26T04:40:53;98478.66;;;21.62;36.79
73003;BME280;61184;54.356;-8.550;2022-10-26T04:43:19;98468.00;;;21.76;36.93
73003;BME280;61184;54.356;-8.550;2022-10-26T04:45:44;98467.59;;;21.50;36.95
73003;BME280;61184;54.356;-8.550;2022-10-26T04:48:11;98465.53;;;21.49;36.93
73003;BME280;61184;54.356;-8.550;2022-10-26T04:50:35;98453.93;;;21.52;36.86
73003;BME280;61184;54.356;-8.550;2022-10-26T04:53:00;98453.44;;;21.51;36.87
73003;BME280;61184;54.356;-8.550;2022-10-26T04:55:26;98465.27;;;21.82;36.80
73003;BME280;61184;54.356;-8.550;2022-10-26T04:57:52;98469.11;;;21.71;36.92
73003;BME280;61184;54.356;-8.550;2022-10-26T05:00:17;98461.62;;;21.73;36.92
73003;BME280;61184;54.356;-8.550;2022-10-26T05:02:42;98460.02;;;21.50;36.86
73003;BME280;61184;54.356;-8.550;2022-10-26T05:05:08;98455.39;;;21.47;36.91
73003;BME280;61184;54.356;-8.550;2022-10-26T05:07:33;98459.40;;;21.63;37.01
73003;BME280;61184;54.356;-8.550;2022-10-26T05:09:58;98456.07;;;21.72;36.93
73003;BME280;61184;54.356;-8.550;2022-10-26T05:12:24;98454.24;;;21.43;36.94
73003;BME280;61184;54.356;-8.550;2022-10-26T05:14:49;98458.81;;;21.56;37.09
73003;BME280;61184;54.356;-8.550;2022-10-26T05:17:15;98457.28;;;21.49;36.82
73003;BME280;61184;54.356;-8.550;2022-10-26T05:19:40;98470.37;;;21.61;37.00
73003;BME280;61184;54.356;-8.550;2022-10-26T05:22:05;98458.43;;;21.61;37.01
73003;BME280;61184;54.356;-8.550;2022-10-26T05:24:31;98460.75;;;21.43;37.24
73003;BME280;61184;54.356;-8.550;2022-10-26T05:26:56;98461.34;;;21.74;36.81
73003;BME280;61184;54.356;-8.550;2022-10-26T05:29:21;98463.83;;;21.36;37.35
73003;BME280;61184;54.356;-8.550;2022-10-26T05:31:47;98461.17;;;21.63;36.93
73003;BME280;61184;54.356;-8.550;2022-10-26T05:34:12;98456.48;;;21.33;37.00
73003;BME280;61184;54.356;-8.550;2022-10-26T05:36:38;98453.76;;;21.43;37.21
73003;BME280;61184;54.356;-8.550;2022-10-26T05:39:03;98448.03;;;21.66;36.87
73003;BME280;61184;54.356;-8.550;2022-10-26T05:41:29;98443.09;;;21.65;36.86
73003;BME280;61184;54.356;-8.550;2022-10-26T05:43:54;98446.98;;;21.47;37.14
73003;BME280;61184;54.356;-8.550;2022-10-26T05:46:20;98445.60;;;21.64;36.87
73003;BME280;61184;54.356;-8.550;2022-10-26T05:48:45;98450.75;;;21.55;36.99
73003;BME280;61184;54.356;-8.550;2022-10-26T05:51:10;98445.38;;;21.52;37.01
73003;BME280;61184;54.356;-8.550;2022-10-26T05:53:36;98438.18;;;21.07;37.31
73003;BME280;61184;54.356;-8.550;2022-10-26T05:56:08;98439.82;;;21.61;36.88
73003;BME280;61184;54.356;-8.550;2022-10-26T05:58:27;98426.64;;;21.08;37.27
73003;BME280;61184;54.356;-8.550;2022-10-26T06:01:04;98432.36;;;21.21;37.07
73003;BME280;61184;54.356;-8.550;2022-10-26T06:03:27;98429.64;;;21.79;36.93
73003;BME280;61184;54.356;-8.550;2022-10-26T06:05:51;98432.23;;;21.27;37.33
73003;BME280;61184;54.356;-8.550;2022-10-26T06:08:09;98438.78;;;21.53;37.00
73003;BME280;61184;54.356;-8.550;2022-10-26T06:10:34;98442.01;;;21.12;37.50
73003;BME280;61184;54.356;-8.550;2022-10-26T06:13:00;98449.30;;;21.52;37.33
73003;BME280;61184;54.356;-8.550;2022-10-26T06:15:25;98456.82;;;21.30;37.28
73003;BME280;61184;54.356;-8.550;2022-10-26T06:17:57;98464.47;;;21.46;37.04
73003;BME280;61184;54.356;-8.550;2022-10-26T06:20:26;98457.75;;;21.37;37.18
73003;BME280;61184;54.356;-8.550;2022-10-26T06:22:52;98462.79;;;21.12;37.49
73003;BME280;61184;54.356;-8.550;2022-10-26T06:25:17;98455.46;;;21.33;37.53
73003;BME280;61184;54.356;-8.550;2022-10-26T06:27:39;98455.36;;;20.91;37.43
73003;BME280;61184;54.356;-8.550;2022-10-26T06:30:00;98461.68;;;21.23;37.30
73003;BME280;61184;54.356;-8.550;2022-10-26T06:32:23;98462.11;;;21.05;37.21
73003;BME280;61184;54.356;-8.550;2022-10-26T06:34:49;98468.94;;;21.27;37.26
73003;BME280;61184;54.356;-8.550;2022-10-26T06:37:14;98480.12;;;21.40;37.06
73003;BME280;61184;54.356;-8.550;2022-10-26T06:39:43;98485.71;;;21.01;37.28
73003;BME280;61184;54.356;-8.550;2022-10-26T06:42:06;98483.43;;;20.44;38.67
73003;BME280;61184;54.356;-8.550;2022-10-26T06:44:30;98477.35;;;21.13;37.57
73003;BME280;61184;54.356;-8.550;2022-10-26T06:47:02;98481.21;;;21.72;37.38
73003;BME280;61184;54.356;-8.550;2022-10-26T06:49:26;98477.22;;;21.25;37.35
73003;BME280;61184;54.356;-8.550;2022-10-26T06:51:50;98476.33;;;21.26;37.36
73003;BME280;61184;54.356;-8.550;2022-10-26T06:54:17;98479.90;;;20.96;37.39
73003;BME280;61184;54.356;-8.550;2022-10-26T06:56:37;98483.09;;;21.27;37.26
73003;BME280;61184;54.356;-8.550;2022-10-26T06:59:07;98485.20;;;20.98;37.32
73003;BME280;61184;54.356;-8.550;2022-10-26T07:01:28;98477.86;;;21.30;37.20
73003;BME280;61184;54.356;-8.550;2022-10-26T07:03:53;98478.76;;;21.27;37.20
73003;BME280;61184;54.356;-8.550;2022-10-26T07:06:19;98491.89;;;21.27;37.19
73003;BME280;61184;54.356;-8.550;2022-10-26T07:08:44;98491.79;;;21.15;37.34
73003;BME280;61184;54.356;-8.550;2022-10-26T07:11:09;98494.07;;;21.00;37.55
73003;BME280;61184;54.356;-8.550;2022-10-26T07:13:35;98490.01;;;21.13;37.34
73003;BME280;61184;54.356;-8.550;2022-10-26T07:16:01;98501.17;;;21.19;37.24
73003;BME280;61184;54.356;-8.550;2022-10-26T07:18:26;98501.45;;;21.24;37.19
73003;BME280;61184;54.356;-8.550;2022-10-26T07:20:52;98486.86;;;21.25;37.15
73003;BME280;61184;54.356;-8.550;2022-10-26T07:23:17;98497.26;;;21.41;37.24
73003;BME280;61184;54.356;-8.550;2022-10-26T07:25:42;98496.73;;;21.08;37.36
73003;BME280;61184;54.356;-8.550;2022-10-26T07:28:09;98489.65;;;21.15;37.24
73003;BME280;61184;54.356;-8.550;2022-10-26T07:30:33;98480.33;;;21.05;37.35
73003;BME280;61184;54.356;-8.550;2022-10-26T07:33:00;98499.24;;;21.27;37.06
73003;BME280;61184;54.356;-8.550;2022-10-26T07:35:24;98518.93;;;21.25;37.08
73003;BME280;61184;54.356;-8.550;2022-10-26T07:37:49;98526.98;;;21.21;37.11
73003;BME280;61184;54.356;-8.550;2022-10-26T07:40:15;98530.20;;;21.20;37.10
73003;BME280;61184;54.356;-8.550;2022-10-26T07:42:40;98533.48;;;21.22;37.10
73003;BME280;61184;54.356;-8.550;2022-10-26T07:45:07;98560.36;;;21.14;37.23
73003;BME280;61184;54.356;-8.550;2022-10-26T07:47:31;98538.27;;;21.24;37.04
73003;BME280;61184;54.356;-8.550;2022-10-26T07:49:57;98553.01;;;21.20;37.10
73003;BME280;61184;54.356;-8.550;2022-10-26T07:52:23;98551.33;;;20.88;37.16
73003;BME280;61184;54.356;-8.550;2022-10-26T07:54:47;98566.70;;;21.17;37.07
73003;BME280;61184;54.356;-8.550;2022-10-26T07:57:14;98564.99;;;21.10;37.20
73003;BME280;61184;54.356;-8.550;2022-10-26T07:59:38;98581.48;;;21.15;37.10
73003;BME280;61184;54.356;-8.550;2022-10-26T08:02:03;98576.07;;;21.48;36.95
73003;BME280;61184;54.356;-8.550;2022-10-26T08:04:29;98594.70;;;21.17;37.03
73003;BME280;61184;54.356;-8.550;2022-10-26T08:06:54;98578.97;;;21.15;37.03
73003;BME280;61184;54.356;-8.550;2022-10-26T08:09:20;98587.43;;;21.03;37.19
73003;BME280;61184;54.356;-8.550;2022-10-26T08:11:46;98582.76;;;21.09;37.13
73003;BME280;61184;54.356;-8.550;2022-10-26T08:14:11;98584.41;;;21.04;37.17
73003;BME280;61184;54.356;-8.550;2022-10-26T08:16:37;98598.81;;;21.17;36.99
73003;BME280;61184;54.356;-8.550;2022-10-26T08:19:01;98616.37;;;21.12;37.05
73003;BME280;61184;54.356;-8.550;2022-10-26T08:21:27;98629.66;;;21.00;37.20
73003;BME280;61184;54.356;-8.550;2022-10-26T08:23:53;98620.98;;;21.15;36.99
73003;BME280;61184;54.356;-8.550;2022-10-26T08:26:18;98634.26;;;21.11;37.04
73003;BME280;61184;54.356;-8.550;2022-10-26T08:28:47;98634.63;;;21.05;37.13
73003;BME280;61184;54.356;-8.550;2022-10-26T08:31:09;98645.90;;;21.29;37.10
73003;BME280;61184;54.356;-8.550;2022-10-26T08:33:34;98661.87;;;21.10;37.00
73003;BME280;61184;54.356;-8.550;2022-10-26T08:36:03;98664.40;;;21.13;36.97
73003;BME280;61184;54.356;-8.550;2022-10-26T08:38:25;98681.04;;;21.03;37.11
73003;BME280;61184;54.356;-8.550;2022-10-26T08:40:52;98700.84;;;21.21;36.84
73003;BME280;61184;54.356;-8.550;2022-10-26T08:43:19;98706.59;;;20.89;37.25
73003;BME280;61184;54.356;-8.550;2022-10-26T08:45:46;98708.16;;;21.00;37.11
73003;BME280;61184;54.356;-8.550;2022-10-26T08:48:12;98723.82;;;20.81;37.35
73003;BME280;61184;54.356;-8.550;2022-10-26T08:50:35;98729.64;;;21.22;37.10
73003;BME280;61184;54.356;-8.550;2022-10-26T08:53:07;98733.33;;;20.96;37.13
73003;BME280;61184;54.356;-8.550;2022-10-26T08:55:29;98744.47;;;21.23;36.74
73003;BME280;61184;54.356;-8.550;2022-10-26T09:00:17;98751.54;;;21.12;36.88
73003;BME280;61184;54.356;-8.550;2022-10-26T09:05:13;98759.56;;;21.36;36.12
73003;BME280;61184;54.356;-8.550;2022-10-26T09:07:41;98766.94;;;21.06;36.21
73003;BME280;61184;54.356;-8.550;2022-10-26T09:12:28;98794.76;;;21.39;36.06
73003;BME280;61184;54.356;-8.550;2022-10-26T09:14:55;98809.52;;;21.23;36.30
73003;BME280;61184;54.356;-8.550;2022-10-26T09:17:16;98816.31;;;21.18;36.38
73003;BME280;61184;54.356;-8.550;2022-10-26T09:19:48;98824.56;;;21.26;36.62
73003;BME280;61184;54.356;-8.550;2022-10-26T09:22:10;98836.19;;;21.07;36.85
73003;BME280;61184;54.356;-8.550;2022-10-26T09:24:31;98842.01;;;21.39;37.09
73003;BME280;61184;54.356;-8.550;2022-10-26T09:26:55;98840.79;;;21.42;37.07
73003;BME280;61184;54.356;-8.550;2022-10-26T09:29:23;98851.97;;;20.90;37.13
73003;BME280;61184;54.356;-8.550;2022-10-26T09:31:46;98857.49;;;20.91;37.09
73003;BME280;61184;54.356;-8.550;2022-10-26T09:34:19;98864.08;;;20.98;37.00
73003;BME280;61184;54.356;-8.550;2022-10-26T09:36:36;98865.45;;;20.95;37.00
73003;BME280;61184;54.356;-8.550;2022-10-26T09:39:09;98876.51;;;20.91;37.12
73003;BME280;61184;54.356;-8.550;2022-10-26T09:41:30;98866.65;;;20.84;37.18
73003;BME280;61184;54.356;-8.550;2022-10-26T09:43:56;98884.69;;;20.94;37.05
73003;BME280;61184;54.356;-8.550;2022-10-26T09:46:20;98886.52;;;21.19;37.02
73003;BME280;61184;54.356;-8.550;2022-10-26T09:48:47;98892.82;;;20.80;37.21
73003;BME280;61184;54.356;-8.550;2022-10-26T09:51:08;98902.06;;;20.91;37.08
73003;BME280;61184;54.356;-8.550;2022-10-26T09:53:33;98907.20;;;20.82;37.19
73003;BME280;61184;54.356;-8.550;2022-10-26T09:56:03;98915.61;;;21.06;37.15
73003;BME280;61184;54.356;-8.550;2022-10-26T09:58:27;98915.10;;;20.87;37.09
73003;BME280;61184;54.356;-8.550;2022-10-26T10:00:51;98917.61;;;21.33;37.10
73003;BME280;61184;54.356;-8.550;2022-10-26T10:03:18;98935.26;;;20.91;37.02
73003;BME280;61184;54.356;-8.550;2022-10-26T10:05:41;98948.62;;;20.64;37.40
73003;BME280;61184;54.356;-8.550;2022-10-26T10:08:15;98951.96;;;21.28;37.14
73003;BME280;61184;54.356;-8.550;2022-10-26T10:10:31;98970.97;;;20.95;36.98
73003;BME280;61184;54.356;-8.550;2022-10-26T10:12:57;98984.01;;;20.93;36.98
73003;BME280;61184;54.356;-8.550;2022-10-26T10:15:24;98986.47;;;20.89;37.02
73003;BME280;61184;54.356;-8.550;2022-10-26T10:17:51;98988.40;;;20.72;37.24
73003;BME280;61184;54.356;-8.550;2022-10-26T10:20:18;98998.73;;;20.54;37.16
73003;BME280;61184;54.356;-8.550;2022-10-26T10:25:20;99000.03;;;20.72;37.25
73003;BME280;61184;54.356;-8.550;2022-10-26T10:27:30;98998.14;;;21.03;37.14
73003;BME280;61184;54.356;-8.550;2022-10-26T10:29:57;99015.56;;;21.02;37.15
73003;BME280;61184;54.356;-8.550;2022-10-26T10:32:22;99012.32;;;20.89;36.97
73003;BME280;61184;54.356;-8.550;2022-10-26T10:34:47;99012.55;;;21.01;37.15
73003;BME280;61184;54.356;-8.550;2022-10-26T10:37:22;99021.31;;;20.80;37.10
73003;BME280;61184;54.356;-8.550;2022-10-26T10:39:38;99036.77;;;20.73;37.18
73003;BME280;61184;54.356;-8.550;2022-10-26T10:42:03;99042.99;;;20.70;37.23
73003;BME280;61184;54.356;-8.550;2022-10-26T10:44:29;99048.09;;;21.05;37.07
73003;BME280;61184;54.356;-8.550;2022-10-26T10:46:59;99045.97;;;20.90;36.94
73003;BME280;61184;54.356;-8.550;2022-10-26T10:49:22;99048.48;;;20.79;37.13
73003;BME280;61184;54.356;-8.550;2022-10-26T10:51:44;99052.10;;;20.74;37.18
73003;BME280;61184;54.356;-8.550;2022-10-26T10:54:18;99059.15;;;20.86;36.97
73003;BME280;61184;54.356;-8.550;2022-10-26T10:56:40;99065.97;;;21.18;36.90
73003;BME280;61184;54.356;-8.550;2022-10-26T10:59:09;99069.96;;;21.11;36.95
73003;BME280;61184;54.356;-8.550;2022-10-26T11:01:31;99080.19;;;20.78;37.51
73003;BME280;61184;54.356;-8.550;2022-10-26T11:04:05;99086.57;;;21.14;37.35
73003;BME280;61184;54.356;-8.550;2022-10-26T11:06:18;99091.78;;;21.25;37.20
73003;BME280;61184;54.356;-8.550;2022-10-26T11:08:46;99097.43;;;21.09;37.03
73003;BME280;61184;54.356;-8.550;2022-10-26T11:11:11;99106.50;;;21.15;36.95
73003;BME280;61184;54.356;-8.550;2022-10-26T11:13:37;99115.15;;;20.85;37.04
73003;BME280;61184;54.356;-8.550;2022-10-26T11:16:01;99124.62;;;21.15;36.94
73003;BME280;61184;54.356;-8.550;2022-10-26T11:18:28;99135.62;;;20.67;37.30
73003;BME280;61184;54.356;-8.550;2022-10-26T11:20:52;99142.13;;;21.17;36.91
73003;BME280;61184;54.356;-8.550;2022-10-26T11:23:19;99145.61;;;21.10;36.97
73003;BME280;61184;54.356;-8.550;2022-10-26T11:25:46;99149.89;;;20.83;37.01
73003;BME280;61184;54.356;-8.550;2022-10-26T11:28:13;99158.25;;;21.02;36.75
73003;BME280;61184;54.356;-8.550;2022-10-26T11:30:33;99162.17;;;20.84;37.00
73003;BME280;61184;54.356;-8.550;2022-10-26T11:33:02;99165.74;;;20.83;37.40
73003;BME280;61184;54.356;-8.550;2022-10-26T11:35:25;99173.38;;;21.14;37.52
73003;BME280;61184;54.356;-8.550;2022-10-26T11:37:51;99176.24;;;20.92;38.51
73003;BME280;61184;54.356;-8.550;2022-10-26T11:40:21;99183.50;;;21.09;38.54
73003;BME280;61184;54.356;-8.550;2022-10-26T11:42:41;99189.65;;;21.15;38.65
73003;BME280;61184;54.356;-8.550;2022-10-26T11:45:09;99207.78;;;21.51;38.07
73003;BME280;61184;54.356;-8.550;2022-10-26T11:47:33;99199.48;;;21.43;38.26
73003;BME280;61184;54.356;-8.550;2022-10-26T11:50:02;99211.90;;;21.46;38.61
73003;BME280;61184;54.356;-8.550;2022-10-26T11:52:23;99220.39;;;21.75;37.89
73003;BME280;61184;54.356;-8.550;2022-10-26T11:54:48;99226.05;;;21.50;37.99
73003;BME280;61184;54.356;-8.550;2022-10-26T11:57:11;99230.77;;;21.96;38.05
73003;BME280;61184;54.356;-8.550;2022-10-26T11:59:39;99235.53;;;22.02;37.78
73003;BME280;61184;54.356;-8.550;2022-10-26T12:02:04;99242.86;;;22.25;37.76
73003;BME280;61184;54.356;-8.550;2022-10-26T12:04:30;99248.00;;;21.88;38.46
73003;BME280;61184;54.356;-8.550;2022-10-26T12:06:53;99250.92;;;22.14;38.08
73003;BME280;61184;54.356;-8.550;2022-10-26T12:09:22;99252.98;;;22.00;38.51
73003;BME280;61184;54.356;-8.550;2022-10-26T12:11:47;99262.22;;;22.16;37.68
73003;BME280;61184;54.356;-8.550;2022-10-26T12:14:17;99279.40;;;22.31;37.23
73003;BME280;61184;54.356;-8.550;2022-10-26T12:16:43;99281.55;;;22.49;36.75
73003;BME280;61184;54.356;-8.550;2022-10-26T12:19:03;99281.15;;;22.76;36.87
73003;BME280;61184;54.356;-8.550;2022-10-26T12:21:27;99288.04;;;22.43;37.42
73003;BME280;61184;54.356;-8.550;2022-10-26T12:23:55;99295.03;;;22.66;36.91
73003;BME280;61184;54.356;-8.550;2022-10-26T12:28:41;99312.89;;;22.13;37.11
73003;BME280;61184;54.356;-8.550;2022-10-26T12:35:57;99320.22;;;21.73;37.14
73003;BME280;61184;54.356;-8.550;2022-10-26T12:45:39;99333.46;;;22.00;37.10
73003;BME280;61184;54.356;-8.550;2022-10-26T12:50:30;99355.85;;;22.35;36.85
73003;BME280;61184;54.356;-8.550;2022-10-26T12:52:56;99360.03;;;22.79;36.47
73003;BME280;61184;54.356;-8.550;2022-10-26T12:57:54;99371.12;;;22.41;36.94
73003;BME280;61184;54.356;-8.550;2022-10-26T13:00:14;99368.35;;;22.68;36.25
73003;BME280;61184;54.356;-8.550;2022-10-26T13:02:47;99380.87;;;22.97;36.01
73003;BME280;61184;54.356;-8.550;2022-10-26T13:07:34;99390.75;;;22.67;35.91
73003;BME280;61184;54.356;-8.550;2022-10-26T13:09:57;99392.74;;;22.99;36.12
73003;BME280;61184;54.356;-8.550;2022-10-26T13:12:19;99399.26;;;22.97;35.80
73003;BME280;61184;54.356;-8.550;2022-10-26T13:14:53;99403.03;;;22.75;36.06